Time;durP1;ratioP1;P1;durP2;ratioP2;P2;SDS_P1;SDS_P2;PMS_P1;PMS_P2;Temp;Humidity;BMP_temperature;BMP_pressure;BME280_temperature;BME280_humidity;BME280_pressure;Samples;Min_cycle;Max_cycle;Signal;HPM_P1;HPM_P2
2024/01/23 00:02:02;;;;;;;18.90;11.27;;;;;;;-2.98;100.00;101942.97;5030523;28;20189;-74
2024/01/23 00:04:29;;;;;;;21.15;12.25;;;;;;;-2.67;100.00;101999.56;5031330;28;20407;-75
2024/01/23 00:06:54;;;;;;;23.03;12.77;;;;;;;-2.87;100.00;101983.00;5030442;28;20037;-74
2024/01/23 00:09:20;;;;;;;20.60;11.53;;;;;;;-3.01;100.00;101999.13;5031006;28;20029;-72
2024/01/23 00:11:45;;;;;;;22.60;11.83;;;;;;;-3.07;100.00;101989.94;5030768;28;20030;-70
2024/01/23 00:14:11;;;;;;;18.27;10.83;;;;;;;-3.21;100.00;101979.13;5029925;28;20108;-73
2024/01/23 00:16:36;;;;;;;19.03;10.43;;;;;;;-3.20;100.00;102010.31;5030754;28;20334;-71
2024/01/23 00:19:02;;;;;;;16.97;9.93;;;;;;;-3.80;100.00;101924.34;5030434;28;20049;-72
2024/01/23 00:21:28;;;;;;;19.87;11.17;;;;;;;-3.26;100.00;101995.38;5030434;28;20107;-70
2024/01/23 00:23:53;;;;;;;19.10;9.83;;;;;;;-3.58;100.00;101939.47;5030402;28;20021;-71
2024/01/23 00:26:19;;;;;;;18.20;9.40;;;;;;;-3.63;100.00;101915.31;5030171;28;20034;-71
2024/01/23 00:28:45;;;;;;;21.83;11.07;;;;;;;-3.17;100.00;101987.97;5030723;28;20068;-71
2024/01/23 00:31:11;;;;;;;23.43;11.57;;;;;;;-3.35;100.00;101976.59;5030387;28;20084;-70
2024/01/23 00:33:36;;;;;;;20.33;11.13;;;;;;;-3.96;100.00;101913.19;5030301;28;20029;-70
2024/01/23 00:36:02;;;;;;;19.93;11.47;;;;;;;-3.68;100.00;101976.97;5023691;28;20518;-70
2024/01/23 00:38:28;;;;;;;25.43;14.97;;;;;;;-3.76;100.00;102004.72;5028499;28;20053;-71
2024/01/23 00:40:53;;;;;;;23.00;13.20;;;;;;;-4.69;100.00;101863.34;5030824;28;20442;-71
2024/01/23 00:43:19;;;;;;;23.13;12.37;;;;;;;-4.15;100.00;101946.31;5030002;28;20033;-74
2024/01/23 00:45:44;;;;;;;23.60;12.47;;;;;;;-3.82;100.00;101986.34;5029006;28;20077;-73
2024/01/23 00:48:10;;;;;;;24.13;12.63;;;;;;;-3.69;100.00;101985.28;5028773;28;20411;-70
2024/01/23 00:50:35;;;;;;;18.33;11.10;;;;;;;-3.97;100.00;101916.41;5029452;28;20116;-70
2024/01/23 00:53:01;;;;;;;22.40;11.17;;;;;;;-3.65;100.00;101953.00;5029960;28;20033;-70
2024/01/23 00:55:26;;;;;;;21.90;12.83;;;;;;;-3.50;100.00;101963.09;5030311;28;20179;-70
2024/01/23 00:57:53;;;;;;;21.00;11.67;;;;;;;-3.38;100.00;101977.16;5029923;28;20038;-71
2024/01/23 01:00:20;;;;;;;21.57;11.87;;;;;;;-3.48;100.00;101944.88;5026889;28;20049;-71
2024/01/23 01:02:46;;;;;;;22.13;11.63;;;;;;;-3.52;100.00;101935.13;5029441;28;20041;-71
2024/01/23 01:05:11;;;;;;;18.93;10.83;;;;;;;-3.39;100.00;101957.66;5028377;28;20033;-73
2024/01/23 01:07:36;;;;;;;20.97;11.17;;;;;;;-3.32;100.00;101962.72;5028491;28;20512;-71
2024/01/23 01:10:04;;;;;;;21.37;11.67;;;;;;;-3.32;100.00;101964.34;5029589;28;20495;-73
2024/01/23 01:12:30;;;;;;;19.87;11.57;;;;;;;-3.27;100.00;101968.31;5029411;28;20034;-70
2024/01/23 01:14:55;;;;;;;21.00;11.13;;;;;;;-3.20;100.00;101964.84;5029120;28;20038;-74
2024/01/23 01:17:21;;;;;;;25.77;11.20;;;;;;;-3.29;100.00;101955.50;5030137;28;20124;-70
2024/01/23 01:19:47;;;;;;;20.53;11.07;;;;;;;-3.38;100.00;101948.47;5029441;28;20415;-70
2024/01/23 01:22:13;;;;;;;19.60;10.53;;;;;;;-3.36;100.00;101952.97;5029411;28;20033;-70
2024/01/23 01:24:40;;;;;;;19.37;11.23;;;;;;;-3.78;100.00;101887.56;5029180;28;20523;-72
2024/01/23 01:27:06;;;;;;;20.07;11.40;;;;;;;-3.52;100.00;101931.72;5029336;28;20027;-70
2024/01/23 01:29:31;;;;;;;20.47;11.27;;;;;;;-3.52;100.00;101936.78;5028914;28;20068;-71
2024/01/23 01:31:57;;;;;;;21.80;11.80;;;;;;;-3.92;100.00;101891.00;5028748;28;20057;-70
2024/01/23 01:34:22;;;;;;;21.10;12.23;;;;;;;-3.64;100.00;101939.69;5030293;28;20533;-70
2024/01/23 01:36:48;;;;;;;20.47;11.33;;;;;;;-3.69;100.00;101939.84;5028773;28;20475;-70
2024/01/23 01:39:14;;;;;;;20.93;12.20;;;;;;;-3.98;100.00;101894.44;5029334;28;20030;-70
2024/01/23 01:41:40;;;;;;;23.90;12.60;;;;;;;-3.82;100.00;101938.41;5029650;28;20032;-70
2024/01/23 01:44:06;;;;;;;23.37;12.43;;;;;;;-3.75;100.00;101932.44;5028491;28;20022;-71
2024/01/23 01:46:32;;;;;;;22.07;12.10;;;;;;;-3.81;100.00;101904.88;5029538;28;20103;-71
2024/01/23 01:48:57;;;;;;;23.30;12.90;;;;;;;-4.07;100.00;101851.38;5028997;28;20484;-71
2024/01/23 01:51:26;;;;;;;19.97;11.77;;;;;;;-4.14;100.00;101818.56;5029342;28;20040;-76
2024/01/23 01:53:52;;;;;;;21.13;12.17;;;;;;;-3.59;100.00;101923.44;5029027;28;20022;-72
2024/01/23 01:56:23;;;;;;;21.13;11.50;;;;;;;-3.59;100.00;101918.38;5027864;28;20341;-69
2024/01/23 01:58:48;;;;;;;19.00;10.60;;;;;;;-3.60;100.00;101910.63;5028918;28;20041;-71
2024/01/23 02:01:14;;;;;;;23.30;12.67;;;;;;;-3.82;100.00;101895.50;5026931;28;20037;-69
2024/01/23 02:03:39;;;;;;;18.53;10.80;;;;;;;-3.89;100.00;101880.34;5028675;28;20101;-70
2024/01/23 02:06:07;;;;;;;18.23;11.13;;;;;;;-3.75;100.00;101920.75;5028746;28;20112;-71
2024/01/23 02:08:34;;;;;;;22.60;11.80;;;;;;;-4.41;100.00;101855.84;5029651;28;20056;-69
2024/01/23 02:11:02;;;;;;;20.83;11.50;;;;;;;-3.88;100.00;101914.97;5028452;28;20607;-70
2024/01/23 02:13:27;;;;;;;18.53;10.70;;;;;;;-3.82;100.00;101910.63;5028838;28;20033;-71
2024/01/23 02:15:53;;;;;;;19.00;10.53;;;;;;;-3.76;100.00;101923.97;5028457;28;20083;-69
2024/01/23 02:18:18;;;;;;;18.57;9.80;;;;;;;-3.89;100.00;101920.72;5028991;28;20081;-71
2024/01/23 02:20:45;;;;;;;22.50;10.43;;;;;;;-4.00;100.00;101903.41;5029071;28;20033;-71
2024/01/23 02:23:15;;;;;;;18.90;10.00;;;;;;;-4.08;100.00;101893.31;5028562;28;20428;-72
2024/01/23 02:25:42;;;;;;;22.00;11.23;;;;;;;-4.14;100.00;101891.72;5028680;28;20492;-71
2024/01/23 02:28:11;;;;;;;19.47;10.73;;;;;;;-4.02;100.00;101904.88;5029273;28;20456;-75
2024/01/23 02:30:36;;;;;;;15.23;8.75;;;;;;;-4.39;100.00;101826.69;5028636;28;20030;-71
2024/01/23 02:33:03;;;;;;;18.77;11.03;;;;;;;-3.96;100.00;101909.03;5028867;28;20048;-72
2024/01/23 02:35:30;;;;;;;22.17;10.77;;;;;;;-4.15;100.00;101863.09;5028171;28;20483;-72
2024/01/23 02:37:56;;;;;;;18.80;10.07;;;;;;;-4.03;100.00;101898.03;5027863;28;20480;-71
2024/01/23 02:40:21;;;;;;;19.30;10.97;;;;;;;-4.01;100.00;101906.66;5028228;28;20033;-72
2024/01/23 02:42:47;;;;;;;19.93;10.90;;;;;;;-4.21;100.00;101869.91;5011068;28;20042;-73
2024/01/23 02:45:13;;;;;;;20.70;10.50;;;;;;;-4.53;100.00;101803.97;5031909;28;20478;-72
2024/01/23 02:47:38;;;;;;;15.83;8.43;;;;;;;-4.20;100.00;101886.81;5032327;28;20037;-71
2024/01/23 02:50:04;;;;;;;16.27;9.60;;;;;;;-4.26;100.00;101881.97;5031318;28;20052;-74
2024/01/23 02:52:31;;;;;;;17.37;8.97;;;;;;;-4.53;100.00;101828.28;5010481;28;20056;-70
2024/01/23 02:54:58;;;;;;;18.03;9.17;;;;;;;-4.17;100.00;101887.22;5031499;28;20436;-70
2024/01/23 02:57:24;;;;;;;21.13;9.30;;;;;;;-4.18;100.00;101887.03;5032376;28;20480;-71
2024/01/23 02:59:50;;;;;;;16.33;8.77;;;;;;;-4.39;100.00;101864.50;5032781;28;20412;-70
2024/01/23 03:02:15;;;;;;;16.93;9.23;;;;;;;-4.28;100.00;101883.41;5031634;28;20047;-71
2024/01/23 03:04:41;;;;;;;17.50;8.67;;;;;;;-4.31;100.00;101861.97;5032320;28;20025;-71
2024/01/23 03:07:07;;;;;;;18.27;9.60;;;;;;;-4.16;100.00;101883.06;5032590;28;20091;-70
2024/01/23 03:09:33;;;;;;;14.77;9.27;;;;;;;-4.19;100.00;101868.47;5031296;28;20037;-70
2024/01/23 03:11:58;;;;;;;17.40;9.60;;;;;;;-4.26;100.00;101846.69;5031719;28;20076;-70
2024/01/23 03:14:24;;;;;;;16.73;9.43;;;;;;;-4.18;100.00;101859.28;5031731;28;20064;-73
2024/01/23 03:16:49;;;;;;;19.33;10.33;;;;;;;-4.15;100.00;101859.63;5025295;28;20037;-70
2024/01/23 03:19:16;;;;;;;16.40;8.97;;;;;;;-4.06;100.00;101866.66;5031334;28;20055;-70
2024/01/23 03:21:41;;;;;;;21.83;10.27;;;;;;;-4.26;100.00;101831.53;5031694;28;20132;-71
2024/01/23 03:24:07;;;;;;;20.93;11.07;;;;;;;-4.28;100.00;101853.16;5031585;28;20403;-71
2024/01/23 03:26:32;;;;;;;19.30;10.87;;;;;;;-4.43;100.00;101842.16;5031591;28;20503;-70
2024/01/23 03:28:58;;;;;;;19.23;10.77;;;;;;;-4.36;100.00;101853.88;5031290;28;20025;-72
2024/01/23 03:31:23;;;;;;;19.83;9.80;;;;;;;-4.36;100.00;101868.09;5031112;28;20041;-69
2024/01/23 03:33:49;;;;;;;19.97;10.40;;;;;;;-4.43;100.00;101857.28;5031343;28;20029;-73
2024/01/23 03:36:14;;;;;;;21.43;11.47;;;;;;;-4.43;100.00;101859.78;5031646;28;20617;-71
2024/01/23 03:38:40;;;;;;;20.53;11.30;;;;;;;-4.55;100.00;101828.09;5031625;28;20029;-70
2024/01/23 03:41:07;;;;;;;19.90;11.37;;;;;;;-4.46;100.00;101853.47;5031717;28;20675;-73
2024/01/23 03:43:32;;;;;;;19.20;11.27;;;;;;;-4.67;100.00;101829.13;5030834;28;20119;-70
2024/01/23 03:45:58;;;;;;;25.50;13.20;;;;;;;-4.61;100.00;101845.91;5024018;28;20499;-72
2024/01/23 03:48:23;;;;;;;21.80;11.50;;;;;;;-5.08;100.00;101771.47;5030922;28;20061;-71
2024/01/23 03:50:49;;;;;;;25.70;12.60;;;;;;;-5.17;100.00;101747.72;5031092;28;20108;-71
2024/01/23 03:53:14;;;;;;;24.37;12.20;;;;;;;-4.64;100.00;101835.44;5030256;28;20403;-71
2024/01/23 03:55:40;;;;;;;21.47;11.90;;;;;;;-4.59;100.00;101841.03;5031652;28;20029;-71
2024/01/23 03:58:05;;;;;;;22.57;13.40;;;;;;;-4.65;100.00;101827.72;5030470;28;20030;-74
2024/01/23 04:00:30;;;;;;;24.10;13.30;;;;;;;-4.58;100.00;101827.72;5031082;28;20071;-75
2024/01/23 04:02:56;;;;;;;22.57;12.70;;;;;;;-4.78;100.00;101796.00;5030878;28;20045;-71
2024/01/23 04:05:21;;;;;;;22.23;12.53;;;;;;;-4.82;100.00;101803.94;5030799;28;20037;-75
2024/01/23 04:07:48;;;;;;;24.43;12.53;;;;;;;-4.93;100.00;101801.75;5031015;28;20029;-74
2024/01/23 04:10:14;;;;;;;23.63;12.50;;;;;;;-4.84;100.00;101820.47;5031031;28;20499;-71
2024/01/23 04:12:43;;;;;;;23.10;12.43;;;;;;;-5.10;100.00;101757.78;5030016;28;20045;-71
2024/01/23 04:15:09;;;;;;;16.27;10.13;;;;;;;-5.12;100.00;101740.69;4995686;28;20423;-70
2024/01/23 04:17:34;;;;;;;25.37;12.60;;;;;;;-4.96;100.00;101766.09;5030748;28;20057;-70
2024/01/23 04:20:00;;;;;;;25.30;13.10;;;;;;;-5.14;100.00;101707.78;5029682;28;20095;-71
2024/01/23 04:22:26;;;;;;;23.17;12.67;;;;;;;-4.47;100.00;101813.91;5030261;28;20021;-71
2024/01/23 04:24:51;;;;;;;26.30;14.50;;;;;;;-4.57;100.00;101794.25;5030636;28;20024;-69
2024/01/23 04:27:17;;;;;;;30.83;16.70;;;;;;;-4.58;100.00;101790.81;5030944;28;20533;-69
2024/01/23 04:29:42;;;;;;;26.50;15.03;;;;;;;-4.47;100.00;101807.22;5030596;28;20022;-71
2024/01/23 04:32:08;;;;;;;24.57;14.70;;;;;;;-4.90;100.00;101726.53;5029512;28;20522;-77
2024/01/23 04:34:53;;;;;;;28.90;13.00;;;;;;;-4.65;100.00;101810.97;5031245;28;20029;-74
2024/01/23 04:37:19;;;;;;;22.00;13.20;;;;;;;-4.71;100.00;101810.22;5028034;28;20119;-70
2024/01/23 04:39:44;;;;;;;26.03;13.40;;;;;;;-4.77;100.00;101795.31;5024447;28;20872;-71
2024/01/23 04:42:09;;;;;;;28.13;15.17;;;;;;;-4.68;100.00;101800.53;5027607;28;20057;-71
2024/01/23 04:44:35;;;;;;;52.90;31.77;;;;;;;-5.11;100.00;101727.41;5027875;28;20072;-72
2024/01/23 04:47:00;;;;;;;77.27;46.53;;;;;;;-4.73;100.00;101805.00;5027352;28;20057;-70
2024/01/23 04:49:26;;;;;;;83.53;56.53;;;;;;;-5.18;100.00;101732.41;5027194;28;20040;-72
2024/01/23 04:51:51;;;;;;;76.43;48.37;;;;;;;-4.75;100.00;101808.06;5027259;28;20137;-71
2024/01/23 04:54:17;;;;;;;60.37;35.93;;;;;;;-5.24;100.00;101712.44;5027190;28;20072;-71
2024/01/23 04:56:42;;;;;;;37.17;22.37;;;;;;;-4.79;100.00;101804.28;5026993;28;20116;-76
2024/01/23 04:59:08;;;;;;;29.67;17.13;;;;;;;-4.82;100.00;101805.53;5027462;28;20057;-74
2024/01/23 05:01:33;;;;;;;25.30;14.97;;;;;;;-4.89;100.00;101806.44;5027005;28;20172;-71
2024/01/23 05:03:59;;;;;;;26.13;15.33;;;;;;;-4.93;100.00;101789.16;5026625;28;20088;-72
2024/01/23 05:06:24;;;;;;;27.20;14.17;;;;;;;-4.97;100.00;101797.03;5026162;28;20052;-71
2024/01/23 05:08:50;;;;;;;25.63;13.70;;;;;;;-4.97;100.00;101812.16;5028836;28;20112;-71
2024/01/23 05:11:15;;;;;;;26.97;14.80;;;;;;;-5.01;100.00;101803.31;5029677;28;20033;-70
2024/01/23 05:13:42;;;;;;;25.47;13.60;;;;;;;-4.99;100.00;101804.41;5029410;28;20480;-71
2024/01/23 05:16:08;;;;;;;25.60;14.07;;;;;;;-5.05;100.00;101794.53;5029051;28;20047;-73
2024/01/23 05:18:33;;;;;;;26.37;14.87;;;;;;;-5.15;100.00;101790.72;5029451;28;20041;-71
2024/01/23 05:20:59;;;;;;;26.73;15.13;;;;;;;-5.11;100.00;101790.34;5029607;28;20025;-73
2024/01/23 05:23:25;;;;;;;35.27;16.13;;;;;;;-5.10;100.00;101793.03;5030254;28;20104;-70
2024/01/23 05:25:51;;;;;;;27.77;15.77;;;;;;;-5.12;100.00;101797.00;5022395;28;20037;-71
2024/01/23 05:28:16;;;;;;;29.63;15.90;;;;;;;-5.23;100.00;101777.19;5029491;28;20513;-72
2024/01/23 05:30:42;;;;;;;29.73;15.53;;;;;;;-5.06;100.00;101790.19;5029022;28;20030;-70
2024/01/23 05:33:07;;;;;;;36.07;17.90;;;;;;;-5.13;100.00;101790.16;5029121;28;20072;-73
2024/01/23 05:35:34;;;;;;;30.70;16.47;;;;;;;-5.23;100.00;101767.13;5029704;28;20033;-71
2024/01/23 05:37:59;;;;;;;28.90;16.10;;;;;;;-5.09;100.00;101807.44;5029524;28;20484;-71
2024/01/23 05:40:25;;;;;;;27.53;15.83;;;;;;;-5.53;100.00;101719.94;5029900;28;20024;-71
2024/01/23 05:42:50;;;;;;;27.03;16.37;;;;;;;-5.13;100.00;101792.69;5030754;28;20101;-71
2024/01/23 05:45:17;;;;;;;28.10;15.70;;;;;;;-5.17;100.00;101795.56;5029453;28;20424;-72
2024/01/23 05:47:42;;;;;;;27.93;15.27;;;;;;;-5.33;100.00;101767.63;5029238;28;20491;-71
2024/01/23 05:50:09;;;;;;;28.00;15.27;;;;;;;-5.24;100.00;101787.97;5029673;28;20033;-72
2024/01/23 05:52:35;;;;;;;26.43;14.33;;;;;;;-5.66;100.00;101712.47;5010326;28;20136;-71
2024/01/23 05:55:02;;;;;;;27.07;14.93;;;;;;;-5.29;100.00;101784.00;5030549;28;20044;-72
2024/01/23 05:57:28;;;;;;;25.53;14.47;;;;;;;-5.41;100.00;101751.59;5030630;28;20030;-71
2024/01/23 05:59:53;;;;;;;34.40;16.07;;;;;;;-5.36;100.00;101743.00;5030188;28;20476;-71
2024/01/23 06:02:19;;;;;;;31.27;17.13;;;;;;;-5.53;100.00;101702.31;5028813;28;20072;-72
2024/01/23 06:04:45;;;;;;;27.57;14.70;;;;;;;-5.29;100.00;101748.75;5044136;28;20044;-70
2024/01/23 06:07:11;;;;;;;36.80;20.70;;;;;;;-5.04;100.00;101772.75;5027915;28;20075;-70
2024/01/23 06:09:36;;;;;;;28.97;17.20;;;;;;;-5.12;100.00;101745.72;5043397;28;20115;-73
2024/01/23 06:12:02;;;;;;;30.17;15.23;;;;;;;-4.95;100.00;101771.31;5029193;28;20422;-71
2024/01/23 06:14:28;;;;;;;27.77;16.00;;;;;;;-5.00;100.00;101767.34;5029603;28;20033;-70
2024/01/23 06:16:53;;;;;;;34.27;15.87;;;;;;;-5.00;100.00;101771.50;5030636;28;20033;-71
2024/01/23 06:19:20;;;;;;;29.93;16.43;;;;;;;-5.41;100.00;101696.25;5032144;28;20044;-71
2024/01/23 06:21:46;;;;;;;27.10;16.97;;;;;;;-5.00;100.00;101774.03;5031990;28;20095;-71
2024/01/23 06:24:11;;;;;;;30.10;17.27;;;;;;;-4.94;100.00;101772.25;5033951;28;20033;-71
2024/01/23 06:26:37;;;;;;;32.60;16.93;;;;;;;-4.97;100.00;101771.84;5033935;28;20041;-71
2024/01/23 06:29:04;;;;;;;30.80;16.47;;;;;;;-4.91;100.00;101760.00;5033415;28;20025;-71
2024/01/23 06:31:30;;;;;;;32.90;17.10;;;;;;;-4.85;100.00;101767.41;5034010;28;20415;-69
2024/01/23 06:33:56;;;;;;;31.30;17.67;;;;;;;-4.92;100.00;101758.19;5033094;28;20033;-71
2024/01/23 06:36:22;;;;;;;35.73;18.90;;;;;;;-4.89;100.00;101751.91;5014384;28;20052;-70
2024/01/23 06:38:47;;;;;;;58.57;29.67;;;;;;;-4.72;100.00;101775.69;5032367;28;20037;-71
2024/01/23 06:41:13;;;;;;;37.47;20.87;;;;;;;-4.64;100.00;101779.13;5033388;28;20111;-71
2024/01/23 06:43:38;;;;;;;34.10;18.87;;;;;;;-4.68;100.00;101782.91;5032823;28;20037;-70
2024/01/23 06:46:05;;;;;;;34.90;19.40;;;;;;;-4.60;100.00;101776.25;5033513;28;20419;-71
2024/01/23 06:48:31;;;;;;;37.20;20.37;;;;;;;-4.43;100.00;101775.72;5033379;28;20034;-70
2024/01/23 06:50:57;;;;;;;46.13;23.70;;;;;;;-4.46;100.00;101766.19;5033044;28;20036;-74
2024/01/23 06:53:22;;;;;;;36.87;21.60;;;;;;;-4.44;100.00;101758.78;5033727;28;20040;-71
2024/01/23 06:55:48;;;;;;;37.57;22.13;;;;;;;-4.39;100.00;101751.06;5032671;28;20037;-71
2024/01/23 06:58:14;;;;;;;37.10;22.17;;;;;;;-4.27;100.00;101766.69;5033267;28;20029;-71
2024/01/23 07:00:40;;;;;;;38.70;21.60;;;;;;;-4.59;100.00;101679.75;5033288;28;20041;-70
2024/01/23 07:03:06;;;;;;;44.13;24.50;;;;;;;-4.11;100.00;101751.75;5032772;28;20037;-70
2024/01/23 07:05:32;;;;;;;61.27;33.33;;;;;;;-4.18;100.00;101724.00;5032885;28;20045;-70
2024/01/23 07:07:57;;;;;;;49.70;28.20;;;;;;;-3.86;100.00;101743.56;5032685;28;20499;-71
2024/01/23 07:10:23;;;;;;;65.37;31.23;;;;;;;-3.70;100.00;101743.72;5032279;28;20029;-74
2024/01/23 07:12:48;;;;;;;52.07;26.60;;;;;;;-4.17;100.00;101650.16;5032624;28;20033;-69
2024/01/23 07:15:14;;;;;;;48.87;23.97;;;;;;;-3.66;100.00;101708.91;5032034;28;20091;-70
2024/01/23 07:17:39;;;;;;;84.70;41.03;;;;;;;-3.43;100.00;101734.25;5033193;28;20053;-70
2024/01/23 07:20:09;;;;;;;52.33;27.80;;;;;;;-3.35;100.00;101739.22;5032505;28;20455;-73
2024/01/23 07:22:34;;;;;;;51.95;28.80;;;;;;;-3.39;100.00;101705.16;5032134;28;20034;-70
2024/01/23 07:25:03;;;;;;;51.73;28.93;;;;;;;-3.20;100.00;101718.25;5032286;28;20120;-70
2024/01/23 07:27:29;;;;;;;50.53;31.98;;;;;;;-3.07;100.00;101719.63;5027917;28;20597;-70
2024/01/23 07:29:55;;;;;;;49.10;28.93;;;;;;;-3.36;100.00;101656.66;5032672;28;20033;-70
2024/01/23 07:32:20;;;;;;;50.30;29.90;;;;;;;-2.87;100.00;101714.25;5032094;28;20426;-70
2024/01/23 07:34:47;;;;;;;47.07;27.23;;;;;;;-2.86;100.00;101705.94;5030096;28;20073;-70
2024/01/23 07:37:13;;;;;;;49.37;28.07;;;;;;;-2.70;100.00;101719.53;5030918;28;20037;-70
2024/01/23 07:39:39;;;;;;;43.80;28.23;;;;;;;-2.57;100.00;101719.22;5031539;28;20044;-70
2024/01/23 07:42:04;;;;;;;46.87;27.50;;;;;;;-2.45;100.00;101717.16;5023178;28;20041;-75
2024/01/23 07:44:32;;;;;;;44.30;26.10;;;;;;;-2.41;100.00;101708.28;5032264;28;20036;-70
2024/01/23 07:46:58;;;;;;;39.07;23.70;;;;;;;-2.34;100.00;101704.03;5031950;28;20051;-70
2024/01/23 07:49:24;;;;;;;41.03;24.00;;;;;;;-2.36;100.00;101710.56;5032513;28;20025;-73
2024/01/23 07:51:51;;;;;;;41.87;25.13;;;;;;;-2.28;100.00;101724.03;5031874;28;20040;-71
2024/01/23 07:54:16;;;;;;;40.13;24.43;;;;;;;-2.29;100.00;101714.66;5031689;28;20037;-71
2024/01/23 07:56:42;;;;;;;41.30;23.27;;;;;;;-2.26;100.00;101715.00;5031649;28;20034;-70
2024/01/23 07:59:07;;;;;;;42.17;24.90;;;;;;;-2.20;100.00;101715.66;5031386;28;20079;-71
2024/01/23 08:01:33;;;;;;;41.63;24.80;;;;;;;-2.15;100.00;101717.03;5031804;28;20083;-70
2024/01/23 08:03:58;;;;;;;41.87;24.07;;;;;;;-2.61;100.00;101633.69;5032108;28;20614;-70
2024/01/23 08:06:24;;;;;;;47.37;25.27;;;;;;;-2.29;100.00;101720.63;5031643;28;20108;-71
2024/01/23 08:08:50;;;;;;;41.37;24.77;;;;;;;-2.20;100.00;101717.28;5031438;28;20052;-70
2024/01/23 08:11:16;;;;;;;44.67;25.77;;;;;;;-2.12;100.00;101714.84;5031028;28;20033;-71
2024/01/23 08:13:42;;;;;;;40.17;23.40;;;;;;;-2.05;100.00;101711.34;5031273;28;20079;-70
2024/01/23 08:16:10;;;;;;;37.13;24.30;;;;;;;-1.96;100.00;101697.16;5032386;28;20128;-70
2024/01/23 08:18:39;;;;;;;32.33;20.00;;;;;;;-1.91;100.00;101695.09;5031481;28;20045;-70
2024/01/23 08:21:05;;;;;;;39.58;23.58;;;;;;;-1.84;100.00;101689.06;5031369;28;20060;-75
2024/01/23 08:23:30;;;;;;;40.50;23.13;;;;;;;-1.88;100.00;101690.38;5029524;28;20034;-70
2024/01/23 08:25:56;;;;;;;36.97;23.37;;;;;;;-1.82;100.00;101678.38;5031074;28;20439;-71
2024/01/23 08:28:23;;;;;;;39.10;23.87;;;;;;;-2.24;100.00;101627.53;5031829;28;20049;-69
2024/01/23 08:30:49;;;;;;;39.43;24.07;;;;;;;-2.21;100.00;101621.88;5031515;28;20048;-70
2024/01/23 08:33:18;;;;;;;45.93;27.53;;;;;;;-1.82;100.00;101688.50;5030840;28;20033;-71
2024/01/23 08:35:46;;;;;;;34.92;19.95;;;;;;;-1.82;100.00;101685.97;5026663;28;20021;-70
2024/01/23 08:38:11;;;;;;;36.73;19.37;;;;;;;-2.10;100.00;101682.13;5030745;28;20064;-71
2024/01/23 08:40:41;;;;;;;32.77;20.77;;;;;;;-2.11;100.00;101670.19;5031206;28;20060;-72
2024/01/23 08:43:07;;;;;;;36.43;20.73;;;;;;;-2.06;100.00;101668.16;5030875;28;20030;-76
2024/01/23 08:45:33;;;;;;;33.47;20.77;;;;;;;-1.98;100.00;101664.84;5030957;28;20025;-69
2024/01/23 08:47:58;;;;;;;29.83;18.90;;;;;;;-2.11;100.00;101660.06;5045575;28;20107;-71
2024/01/23 08:50:23;;;;;;;32.77;20.53;;;;;;;-1.91;100.00;101666.38;5031077;28;20075;-71
2024/01/23 08:52:49;;;;;;;35.20;19.40;;;;;;;-2.00;100.00;101638.47;5030840;28;20033;-70
2024/01/23 08:55:15;;;;;;;37.60;19.83;;;;;;;-1.68;100.00;101662.09;5030444;28;20030;-71
2024/01/23 08:57:41;;;;;;;29.70;19.10;;;;;;;-1.68;100.00;101635.91;5030731;28;20033;-71
2024/01/23 09:00:11;;;;;;;30.23;18.07;;;;;;;-1.59;100.00;101624.19;5030615;28;20037;-72
2024/01/23 09:02:37;;;;;;;28.77;17.80;;;;;;;-1.33;100.00;101641.19;5030443;28;20504;-71
2024/01/23 09:05:03;;;;;;;31.63;17.10;;;;;;;-1.21;100.00;101645.00;5031165;28;20025;-70
2024/01/23 09:07:29;;;;;;;27.30;17.37;;;;;;;-1.57;100.00;101567.00;5030616;28;20036;-71
2024/01/23 09:09:54;;;;;;;29.90;17.23;;;;;;;-0.98;100.00;101644.78;5030195;28;20030;-71
2024/01/23 09:12:21;;;;;;;33.73;17.73;;;;;;;-0.78;100.00;101640.84;5030002;28;20068;-70
2024/01/23 09:14:47;;;;;;;30.10;18.13;;;;;;;-0.58;100.00;101627.66;5030207;28;20120;-70
2024/01/23 09:17:13;;;;;;;30.57;17.87;;;;;;;-0.51;100.00;101613.97;5030676;28;20523;-71
2024/01/23 09:19:41;;;;;;;31.87;19.33;;;;;;;-0.48;100.00;101604.09;5026679;28;20032;-70
2024/01/23 09:22:07;;;;;;;28.70;18.43;;;;;;;-0.12;100.00;101615.22;5030739;28;20094;-71
2024/01/23 09:24:32;;;;;;;31.63;18.67;;;;;;;-0.05;100.00;101593.09;5029833;28;20545;-71
2024/01/23 09:27:01;;;;;;;29.07;18.43;;;;;;;-0.30;100.00;101549.19;5047242;28;20534;-70
2024/01/23 09:29:27;;;;;;;29.07;17.40;;;;;;;0.12;100.00;101612.50;5048283;28;20044;-70
2024/01/23 09:31:53;;;;;;;24.97;16.47;;;;;;;0.09;100.00;101589.38;5047464;28;20044;-70
2024/01/23 09:34:18;;;;;;;28.15;15.95;;;;;;;-0.07;100.00;101592.06;5047565;28;20064;-70
2024/01/23 09:36:44;;;;;;;22.43;13.50;;;;;;;-0.45;100.00;101527.41;5047354;28;20033;-70
2024/01/23 09:39:13;;;;;;;20.43;13.17;;;;;;;0.17;100.00;101605.34;5047986;28;20483;-70
2024/01/23 09:41:45;;;;;;;22.80;12.82;;;;;;;0.41;100.00;101604.28;5047387;28;20179;-70
2024/01/23 09:44:11;;;;;;;22.80;13.85;;;;;;;0.45;100.00;101592.78;5047376;28;20033;-70
2024/01/23 09:46:37;;;;;;;20.17;12.80;;;;;;;0.45;100.00;101591.13;5048199;28;20025;-70
2024/01/23 09:49:03;;;;;;;25.63;14.00;;;;;;;0.50;100.00;101578.84;5046999;28;20080;-70
2024/01/23 09:51:28;;;;;;;21.10;14.50;;;;;;;0.58;100.00;101575.38;5046871;28;20052;-70
2024/01/23 09:53:54;;;;;;;21.23;12.93;;;;;;;0.44;100.00;101540.16;5046958;28;20049;-71
2024/01/23 09:56:21;;;;;;;22.63;13.10;;;;;;;0.83;100.00;101572.59;5047799;28;20479;-71
2024/01/23 09:58:47;;;;;;;18.88;12.30;;;;;;;1.01;100.00;101548.03;5046229;28;20048;-71
2024/01/23 10:01:12;;;;;;;21.02;12.20;;;;;;;1.06;100.00;101544.25;5045304;28;20075;-70
2024/01/23 10:03:38;;;;;;;19.35;11.85;;;;;;;1.00;100.00;101530.97;5040829;28;20393;-73
2024/01/23 10:06:04;;;;;;;18.70;10.50;;;;;;;1.20;100.00;101549.72;5029466;28;20026;-71
2024/01/23 10:08:30;;;;;;;17.35;10.57;;;;;;;1.08;100.00;101524.03;5029813;28;20199;-70
2024/01/23 10:10:56;;;;;;;18.10;10.52;;;;;;;1.29;100.00;101555.63;5029426;28;20496;-71
2024/01/23 10:13:22;;;;;;;18.08;9.75;;;;;;;1.28;100.00;101536.94;5043620;28;20047;-71
2024/01/23 10:15:48;;;;;;;17.50;10.45;;;;;;;1.50;100.00;101530.38;5030539;28;20045;-71
2024/01/23 10:18:13;;;;;;;17.65;10.98;;;;;;;1.65;100.00;101531.75;5029579;28;20053;-70
2024/01/23 10:20:40;;;;;;;16.70;10.82;;;;;;;1.81;100.00;101528.00;5029409;28;20029;-71
2024/01/23 10:23:06;;;;;;;17.58;10.75;;;;;;;1.63;100.00;101525.59;5029935;28;20486;-76
2024/01/23 10:25:32;;;;;;;17.67;11.52;;;;;;;1.72;100.00;101518.81;5029865;28;20033;-70
2024/01/23 10:27:58;;;;;;;20.10;10.80;;;;;;;2.09;100.00;101526.25;5027704;28;20078;-71
2024/01/23 10:30:24;;;;;;;16.63;10.40;;;;;;;1.86;100.00;101503.88;4977259;28;20046;-70
2024/01/23 10:32:50;;;;;;;14.95;9.75;;;;;;;1.72;100.00;101513.72;5029779;28;20029;-69
2024/01/23 10:35:16;;;;;;;16.35;8.75;;;;;;;1.80;100.00;101514.41;5029255;28;20072;-71
2024/01/23 10:37:44;;;;;;;13.25;8.95;;;;;;;2.10;100.00;101528.94;5028821;28;20040;-69
2024/01/23 10:40:13;;;;;;;15.85;9.73;;;;;;;2.20;100.00;101527.22;5029291;28;20089;-70
2024/01/23 10:42:39;;;;;;;15.13;9.80;;;;;;;1.93;100.00;101490.91;5029255;28;20034;-71
2024/01/23 10:45:06;;;;;;;16.33;9.63;;;;;;;2.21;100.00;101527.34;5029534;28;20507;-76
2024/01/23 10:47:31;;;;;;;15.38;10.13;;;;;;;2.36;100.00;101525.22;5029964;28;20065;-71
2024/01/23 10:49:57;;;;;;;14.75;10.10;;;;;;;2.53;100.00;101516.50;5010249;28;20096;-73
2024/01/23 10:52:27;;;;;;;16.77;10.70;;;;;;;2.73;100.00;101513.09;5029085;28;20090;-71
2024/01/23 10:54:53;;;;;;;13.07;8.48;;;;;;;2.73;100.00;101512.22;5029113;28;20041;-71
2024/01/23 10:57:23;;;;;;;15.07;8.82;;;;;;;2.54;100.00;101497.91;5027867;28;20393;-71
2024/01/23 10:59:50;;;;;;;15.60;9.20;;;;;;;2.62;100.00;101497.66;5029108;28;20484;-71